Time;durP1;ratioP1;P1;durP2;ratioP2;P2;SDS_P1;SDS_P2;PMS_P1;PMS_P2;Temp;Humidity;BMP_temperature;BMP_pressure;BME280_temperature;BME280_humidity;BME280_pressure;Samples;Min_cycle;Max_cycle;Signal;HPM_P1;HPM_P2
2021/05/30 00:00:48;;;;;;;18.80;6.03;;;;;;;;;;5075348;28;20501;-69
2021/05/30 00:03:14;;;;;;;19.13;6.73;;;;;;;;;;5084762;28;20127;-69
2021/05/30 00:05:39;;;;;;;21.17;6.50;;;;;;;;;;5080874;28;20036;-69
2021/05/30 00:08:05;;;;;;;19.53;5.77;;;;;;;;;;5079771;28;20044;-69
2021/05/30 00:10:30;;;;;;;17.50;6.43;;;;;;;;;;5085310;28;20027;-69
2021/05/30 00:12:55;;;;;;;19.20;5.83;;;;;;;;;;5084282;28;20445;-69
2021/05/30 00:15:21;;;;;;;17.67;6.60;;;;;;;;;;5079654;28;20472;-69
2021/05/30 00:17:46;;;;;;;22.00;7.23;;;;;;;;;;5081284;28;20032;-69
2021/05/30 00:20:11;;;;;;;22.47;6.80;;;;;;;;;;5085524;28;20031;-69
2021/05/30 00:22:37;;;;;;;18.93;5.67;;;;;;;;;;5079626;28;20069;-69
2021/05/30 00:25:03;;;;;;;23.20;6.20;;;;;;;;;;5077270;28;20029;-69
2021/05/30 00:27:28;;;;;;;28.83;6.77;;;;;;;;;;5087543;28;20020;-69
2021/05/30 00:29:54;;;;;;;24.73;6.50;;;;;;;;;;5085797;28;20050;-69
2021/05/30 00:32:19;;;;;;;23.63;6.60;;;;;;;;;;5081938;28;20397;-69
2021/05/30 00:34:45;;;;;;;21.10;6.80;;;;;;;;;;5085435;28;20034;-69
2021/05/30 00:37:10;;;;;;;24.67;6.27;;;;;;;;;;5086118;28;20081;-69
2021/05/30 00:39:35;;;;;;;36.10;8.90;;;;;;;;;;5079282;28;20039;-69
2021/05/30 00:42:01;;;;;;;30.93;8.10;;;;;;;;;;5085517;28;20356;-69
2021/05/30 00:44:27;;;;;;;25.73;7.80;;;;;;;;;;5080153;28;20037;-69
2021/05/30 00:46:53;;;;;;;23.03;6.67;;;;;;;;;;5090134;28;20070;-69
2021/05/30 00:49:18;;;;;;;24.73;7.20;;;;;;;;;;5084800;28;20317;-69
2021/05/30 00:51:44;;;;;;;26.63;6.67;;;;;;;;;;5087131;28;20162;-69
2021/05/30 00:54:09;;;;;;;22.00;7.37;;;;;;;;;;5090910;28;20022;-69
2021/05/30 00:56:34;;;;;;;27.00;7.40;;;;;;;;;;5093037;28;20027;-69
2021/05/30 00:59:00;;;;;;;25.53;7.57;;;;;;;;;;5089833;28;20036;-69
2021/05/30 01:01:25;;;;;;;31.63;7.43;;;;;;;;;;5087781;28;20550;-69
2021/05/30 01:03:50;;;;;;;24.40;7.00;;;;;;;;;;5084508;28;20044;-69
2021/05/30 01:06:16;;;;;;;25.30;6.73;;;;;;;;;;5090580;28;20036;-69
2021/05/30 01:08:41;;;;;;;31.90;7.83;;;;;;;;;;5082621;28;20465;-69
2021/05/30 01:11:15;;;;;;;32.67;7.63;;;;;;;;;;5083001;28;20024;-69
2021/05/30 01:13:42;;;;;;;28.80;7.37;;;;;;;;;;5094666;28;20111;-69
2021/05/30 01:16:07;;;;;;;28.93;8.17;;;;;;;;;;5088933;28;20346;-69
2021/05/30 01:18:33;;;;;;;32.37;6.97;;;;;;;;;;5092302;28;20377;-69
2021/05/30 01:20:58;;;;;;;35.97;7.87;;;;;;;;;;5090181;28;20089;-69
2021/05/30 01:23:23;;;;;;;32.57;8.30;;;;;;;;;;5088501;28;20455;-69
2021/05/30 01:25:49;;;;;;;32.17;8.77;;;;;;;;;;5080214;28;20052;-69
2021/05/30 01:28:15;;;;;;;27.33;6.90;;;;;;;;;;5084102;28;20052;-69
2021/05/30 01:30:40;;;;;;;36.43;8.70;;;;;;;;;;5079539;28;20403;-69
2021/05/30 01:33:06;;;;;;;33.47;7.43;;;;;;;;;;5086293;28;20024;-69
2021/05/30 01:35:31;;;;;;;46.57;8.17;;;;;;;;;;5086721;28;20441;-69
2021/05/30 01:37:57;;;;;;;33.37;8.53;;;;;;;;;;5091165;28;20111;-69
2021/05/30 01:40:23;;;;;;;32.07;8.03;;;;;;;;;;5091286;28;20059;-69
2021/05/30 01:42:49;;;;;;;41.23;9.07;;;;;;;;;;5091704;28;20028;-69
2021/05/30 01:45:15;;;;;;;40.50;8.27;;;;;;;;;;5083113;28;20504;-69
2021/05/30 01:47:41;;;;;;;42.10;8.90;;;;;;;;;;5084174;28;20296;-69
2021/05/30 01:50:12;;;;;;;32.93;8.77;;;;;;;;;;5080152;28;20755;-69
2021/05/30 01:52:38;;;;;;;44.30;8.77;;;;;;;;;;5088913;28;20448;-69
2021/05/30 01:55:04;;;;;;;41.77;9.27;;;;;;;;;;5094034;28;20278;-69
2021/05/30 01:57:30;;;;;;;36.73;8.97;;;;;;;;;;5089612;28;20023;-69
2021/05/30 01:59:56;;;;;;;44.60;9.00;;;;;;;;;;5088716;28;20809;-69
2021/05/30 02:02:24;;;;;;;37.53;8.70;;;;;;;;;;5092406;28;20040;-69
2021/05/30 02:04:49;;;;;;;52.23;10.63;;;;;;;;;;5086869;28;20270;-69
2021/05/30 02:07:15;;;;;;;40.00;8.60;;;;;;;;;;5092186;28;20374;-69
2021/05/30 02:09:41;;;;;;;37.17;8.63;;;;;;;;;;5077600;28;20024;-69
2021/05/30 02:12:06;;;;;;;44.87;9.67;;;;;;;;;;5082005;28;20031;-69
2021/05/30 02:14:34;;;;;;;42.83;8.90;;;;;;;;;;5081632;28;20259;-67
2021/05/30 02:17:00;;;;;;;37.97;8.13;;;;;;;;;;5094613;28;20483;-67
2021/05/30 02:19:25;;;;;;;36.53;9.20;;;;;;;;;;5091023;28;20278;-67
2021/05/30 02:21:51;;;;;;;38.30;8.10;;;;;;;;;;5092824;28;20035;-69
2021/05/30 02:24:18;;;;;;;38.40;8.50;;;;;;;;;;5093011;28;20031;-69
2021/05/30 02:26:43;;;;;;;49.60;9.37;;;;;;;;;;5088715;28;20743;-69
2021/05/30 02:29:09;;;;;;;39.53;8.23;;;;;;;;;;5090567;28;20368;-69
2021/05/30 02:31:34;;;;;;;52.77;9.40;;;;;;;;;;5080113;28;20027;-69
2021/05/30 02:34:00;;;;;;;44.73;8.43;;;;;;;;;;5086465;28;20175;-69
2021/05/30 02:36:26;;;;;;;44.37;8.40;;;;;;;;;;5084456;28;20051;-69
2021/05/30 02:38:51;;;;;;;53.47;10.20;;;;;;;;;;5090549;28;20031;-69
2021/05/30 02:41:16;;;;;;;44.87;9.57;;;;;;;;;;5081455;28;20263;-69
2021/05/30 02:43:42;;;;;;;47.03;9.33;;;;;;;;;;5087229;28;20032;-69
2021/05/30 02:46:07;;;;;;;49.30;9.13;;;;;;;;;;5085794;28;20468;-69
2021/05/30 02:48:32;;;;;;;44.17;8.57;;;;;;;;;;5082954;28;20721;-69
2021/05/30 02:50:59;;;;;;;42.20;8.20;;;;;;;;;;5088958;28;20007;-69
2021/05/30 02:53:31;;;;;;;35.07;8.07;;;;;;;;;;5076264;28;20103;-69
2021/05/30 02:55:57;;;;;;;38.83;8.43;;;;;;;;;;5086989;28;20300;-69
2021/05/30 02:58:23;;;;;;;41.67;9.13;;;;;;;;;;5084867;28;20028;-69
2021/05/30 03:00:48;;;;;;;48.60;9.67;;;;;;;;;;5087210;28;20311;-69
2021/05/30 03:03:13;;;;;;;44.53;9.43;;;;;;;;;;5084725;28;20109;-69
2021/05/30 03:05:39;;;;;;;50.00;9.00;;;;;;;;;;5083448;28;20020;-69
2021/05/30 03:08:04;;;;;;;44.97;9.87;;;;;;;;;;5084289;28;20028;-69
2021/05/30 03:10:29;;;;;;;44.53;9.20;;;;;;;;;;5092044;28;20050;-69
2021/05/30 03:12:55;;;;;;;44.90;9.27;;;;;;;;;;5092504;28;20068;-69
2021/05/30 03:15:20;;;;;;;45.33;8.67;;;;;;;;;;5081213;28;21627;-69
2021/05/30 03:17:45;;;;;;;45.53;9.80;;;;;;;;;;5087851;28;20020;-69
2021/05/30 03:20:11;;;;;;;52.80;9.03;;;;;;;;;;5077128;28;20016;-69
2021/05/30 03:22:36;;;;;;;40.07;8.83;;;;;;;;;;5090178;28;20111;-69
2021/05/30 03:25:02;;;;;;;40.33;7.70;;;;;;;;;;5080645;28;20032;-69
2021/05/30 03:27:28;;;;;;;43.57;10.03;;;;;;;;;;5077505;28;20035;-69
2021/05/30 03:29:54;;;;;;;47.07;8.83;;;;;;;;;;5081642;28;20484;-69
2021/05/30 03:32:19;;;;;;;43.77;9.07;;;;;;;;;;5089932;28;20040;-69
2021/05/30 03:34:44;;;;;;;39.20;8.10;;;;;;;;;;5083921;28;20028;-69
2021/05/30 03:37:10;;;;;;;43.53;8.67;;;;;;;;;;5091901;28;20055;-69
2021/05/30 03:39:39;;;;;;;39.07;8.87;;;;;;;;;;5087586;28;20032;-69
2021/05/30 03:42:10;;;;;;;42.17;9.63;;;;;;;;;;5083016;28;20041;-69
2021/05/30 03:44:35;;;;;;;41.72;9.45;;;;;;;;;;5087534;28;20335;-70
2021/05/30 03:47:01;;;;;;;40.23;9.43;;;;;;;;;;5091993;28;20024;-71
2021/05/30 03:49:26;;;;;;;35.33;8.40;;;;;;;;;;5078421;28;20012;-69
2021/05/30 03:51:51;;;;;;;34.03;8.17;;;;;;;;;;5083097;28;20408;-69
2021/05/30 03:54:17;;;;;;;38.67;8.53;;;;;;;;;;5083736;28;20048;-69
2021/05/30 03:56:42;;;;;;;34.20;8.27;;;;;;;;;;5082189;28;20380;-69
2021/05/30 03:59:08;;;;;;;34.30;7.27;;;;;;;;;;5089232;28;20053;-69
2021/05/30 04:01:35;;;;;;;38.47;8.50;;;;;;;;;;5083636;28;20028;-69
2021/05/30 04:04:00;;;;;;;33.67;8.70;;;;;;;;;;5085330;28;20055;-69
2021/05/30 04:06:25;;;;;;;32.37;7.83;;;;;;;;;;5078585;28;20266;-69
2021/05/30 04:08:50;;;;;;;28.10;7.57;;;;;;;;;;5089799;28;20102;-69
2021/05/30 04:11:16;;;;;;;19.70;6.73;;;;;;;;;;5090910;28;20425;-69
2021/05/30 04:13:41;;;;;;;20.03;6.77;;;;;;;;;;5080728;28;20113;-69
2021/05/30 04:16:06;;;;;;;17.30;5.57;;;;;;;;;;5085367;28;20024;-69
2021/05/30 04:18:32;;;;;;;13.57;5.30;;;;;;;;;;5081653;28;20081;-69
2021/05/30 04:20:57;;;;;;;16.00;5.10;;;;;;;;;;5082760;28;20028;-69
2021/05/30 04:23:22;;;;;;;13.87;5.27;;;;;;;;;;5081723;28;20062;-68
2021/05/30 04:25:47;;;;;;;12.70;4.30;;;;;;;;;;5083235;28;20039;-68
2021/05/30 04:28:13;;;;;;;13.63;4.60;;;;;;;;;;5077128;28;20032;-68
2021/05/30 04:30:38;;;;;;;12.40;4.70;;;;;;;;;;5087538;28;20058;-68
2021/05/30 04:33:04;;;;;;;9.50;4.00;;;;;;;;;;5082154;28;20107;-68
2021/05/30 04:35:29;;;;;;;8.97;4.03;;;;;;;;;;5083399;28;20114;-68
2021/05/30 04:37:54;;;;;;;11.17;4.77;;;;;;;;;;5085685;28;20028;-68
2021/05/30 04:40:23;;;;;;;12.87;5.60;;;;;;;;;;5086958;28;20034;-68
2021/05/30 04:42:48;;;;;;;13.03;5.17;;;;;;;;;;5083879;28;20035;-68
2021/05/30 04:45:14;;;;;;;14.50;5.10;;;;;;;;;;5090169;28;20480;-68
2021/05/30 04:47:39;;;;;;;15.10;5.47;;;;;;;;;;5070701;28;20114;-68
2021/05/30 04:50:05;;;;;;;12.07;5.30;;;;;;;;;;5090606;28;20111;-68
2021/05/30 04:52:30;;;;;;;16.10;5.03;;;;;;;;;;5087450;28;20031;-68
2021/05/30 04:54:55;;;;;;;12.60;5.17;;;;;;;;;;5090959;28;20027;-68
2021/05/30 04:57:21;;;;;;;15.27;6.13;;;;;;;;;;5086556;28;20099;-68
2021/05/30 04:59:46;;;;;;;11.80;5.80;;;;;;;;;;5086159;28;20435;-68
2021/05/30 05:02:11;;;;;;;14.43;5.70;;;;;;;;;;5083124;28;20035;-68
2021/05/30 05:04:36;;;;;;;16.37;5.80;;;;;;;;;;5078493;28;20033;-68
2021/05/30 05:07:02;;;;;;;12.63;5.80;;;;;;;;;;5083605;28;20497;-68
2021/05/30 05:09:27;;;;;;;16.73;5.70;;;;;;;;;;5076582;28;20349;-68
2021/05/30 05:11:52;;;;;;;17.97;5.23;;;;;;;;;;5089141;28;20341;-68
2021/05/30 05:14:17;;;;;;;10.40;5.33;;;;;;;;;;5088259;28;20069;-68
2021/05/30 05:16:43;;;;;;;15.00;5.57;;;;;;;;;;5087926;28;20080;-68
2021/05/30 05:19:08;;;;;;;14.03;4.80;;;;;;;;;;5086739;28;20452;-68
2021/05/30 05:21:33;;;;;;;11.23;4.70;;;;;;;;;;5083136;28;20361;-68
2021/05/30 05:23:59;;;;;;;19.60;5.97;;;;;;;;;;5085800;28;20028;-68
2021/05/30 05:26:25;;;;;;;10.93;5.20;;;;;;;;;;5088221;28;20424;-68
2021/05/30 05:28:52;;;;;;;12.27;5.07;;;;;;;;;;5066926;28;20042;-68
2021/05/30 05:31:17;;;;;;;11.03;5.07;;;;;;;;;;5088270;28;20055;-68
2021/05/30 05:33:43;;;;;;;14.97;5.10;;;;;;;;;;5089150;28;20064;-68
2021/05/30 05:36:08;;;;;;;11.63;4.77;;;;;;;;;;5087398;28;20375;-68
2021/05/30 05:38:34;;;;;;;12.03;4.77;;;;;;;;;;5083435;28;20030;-68
2021/05/30 05:40:59;;;;;;;13.33;4.53;;;;;;;;;;5087895;28;20028;-68
2021/05/30 05:43:24;;;;;;;8.87;4.77;;;;;;;;;;5087239;28;20036;-68
2021/05/30 05:45:50;;;;;;;11.00;4.75;;;;;;;;;;5095256;28;20090;-68
2021/05/30 05:48:15;;;;;;;11.97;5.67;;;;;;;;;;5081276;28;20425;-68
2021/05/30 05:50:42;;;;;;;10.63;5.23;;;;;;;;;;5093629;28;20024;-68
2021/05/30 05:53:08;;;;;;;11.47;4.60;;;;;;;;;;5083012;28;20036;-68
2021/05/30 05:55:34;;;;;;;13.00;5.20;;;;;;;;;;5082397;28;20078;-68
2021/05/30 05:57:59;;;;;;;11.00;4.90;;;;;;;;;;5088807;28;20111;-68
2021/05/30 06:00:25;;;;;;;13.50;5.38;;;;;;;;;;5093271;28;20095;-68
2021/05/30 06:02:51;;;;;;;14.70;5.97;;;;;;;;;;5095048;28;20131;-68
2021/05/30 06:05:21;;;;;;;15.85;5.00;;;;;;;;;;5083854;28;20536;-68
2021/05/30 06:07:46;;;;;;;9.00;4.70;;;;;;;;;;5092420;28;20427;-68
2021/05/30 06:10:13;;;;;;;12.55;5.40;;;;;;;;;;5087452;28;20055;-68
2021/05/30 06:12:38;;;;;;;10.70;5.30;;;;;;;;;;5084021;28;20385;-69
2021/05/30 06:15:04;;;;;;;12.77;6.07;;;;;;;;;;5086034;28;20099;-69
2021/05/30 06:17:29;;;;;;;15.63;6.07;;;;;;;;;;5087913;28;20017;-69
2021/05/30 06:19:55;;;;;;;9.83;5.17;;;;;;;;;;5087545;28;20031;-69
2021/05/30 06:22:20;;;;;;;14.17;5.67;;;;;;;;;;5091767;28;20061;-68
2021/05/30 06:24:45;;;;;;;11.40;5.03;;;;;;;;;;5081940;28;20024;-68
2021/05/30 06:27:11;;;;;;;9.45;5.00;;;;;;;;;;5088073;28;20103;-68
2021/05/30 06:29:36;;;;;;;10.38;5.90;;;;;;;;;;5086773;28;20400;-68
2021/05/30 06:32:01;;;;;;;12.68;6.03;;;;;;;;;;5092762;28;20024;-68
2021/05/30 06:34:27;;;;;;;10.15;4.97;;;;;;;;;;5089640;28;20026;-68
2021/05/30 06:36:53;;;;;;;10.65;5.22;;;;;;;;;;5084969;28;20108;-68
2021/05/30 06:39:18;;;;;;;11.30;5.25;;;;;;;;;;5078895;28;20021;-68
2021/05/30 06:41:43;;;;;;;11.13;5.30;;;;;;;;;;5087897;28;20502;-68
2021/05/30 06:44:09;;;;;;;10.63;5.40;;;;;;;;;;5088842;28;20060;-69
2021/05/30 06:46:34;;;;;;;11.50;5.07;;;;;;;;;;5091458;28;20098;-69
2021/05/30 06:49:00;;;;;;;10.02;4.82;;;;;;;;;;5082866;28;20034;-68
2021/05/30 06:51:29;;;;;;;10.88;5.22;;;;;;;;;;5082873;28;20052;-68
2021/05/30 06:53:55;;;;;;;12.02;5.05;;;;;;;;;;5088442;28;20020;-68
2021/05/30 06:56:20;;;;;;;12.27;5.63;;;;;;;;;;5092021;28;20325;-68
2021/05/30 06:58:46;;;;;;;13.80;5.10;;;;;;;;;;5090836;28;20494;-69
2021/05/30 07:01:12;;;;;;;10.68;5.10;;;;;;;;;;5084369;28;20094;-69
2021/05/30 07:03:37;;;;;;;13.57;5.35;;;;;;;;;;5084512;28;20418;-69
2021/05/30 07:06:02;;;;;;;14.23;5.57;;;;;;;;;;5086473;28;20058;-69
2021/05/30 07:08:28;;;;;;;11.80;5.10;;;;;;;;;;5081760;28;20032;-69
2021/05/30 07:10:53;;;;;;;9.90;5.13;;;;;;;;;;5088642;28;20082;-68
2021/05/30 07:13:19;;;;;;;12.20;5.30;;;;;;;;;;5080917;28;20095;-69
2021/05/30 07:15:44;;;;;;;10.10;5.18;;;;;;;;;;5083294;28;20039;-69
2021/05/30 07:18:09;;;;;;;12.07;5.03;;;;;;;;;;5085503;28;20036;-69
2021/05/30 07:20:35;;;;;;;11.13;5.68;;;;;;;;;;5084028;28;20122;-69
2021/05/30 07:23:00;;;;;;;11.13;5.00;;;;;;;;;;5086497;28;20393;-69
2021/05/30 07:25:25;;;;;;;12.90;5.18;;;;;;;;;;5086811;28;20084;-69
2021/05/30 07:27:51;;;;;;;8.52;5.18;;;;;;;;;;5083478;28;20035;-69
2021/05/30 07:30:17;;;;;;;11.43;4.80;;;;;;;;;;5084375;28;20404;-69
2021/05/30 07:32:42;;;;;;;10.30;5.32;;;;;;;;;;5087323;28;20107;-69
2021/05/30 07:35:07;;;;;;;9.57;5.47;;;;;;;;;;5084804;28;20464;-69
2021/05/30 07:37:33;;;;;;;11.63;5.75;;;;;;;;;;5084722;28;20020;-68
2021/05/30 07:39:58;;;;;;;12.93;5.72;;;;;;;;;;5086866;28;20024;-68
2021/05/30 07:42:23;;;;;;;9.90;5.22;;;;;;;;;;5083437;28;20031;-69
2021/05/30 07:44:48;;;;;;;10.05;5.30;;;;;;;;;;5091777;28;20051;-69
2021/05/30 07:47:14;;;;;;;12.55;5.40;;;;;;;;;;5091609;28;20830;-69
2021/05/30 07:49:39;;;;;;;13.85;5.68;;;;;;;;;;5089811;28;20024;-69
2021/05/30 07:52:04;;;;;;;12.77;6.03;;;;;;;;;;5092062;28;20065;-69
2021/05/30 07:54:30;;;;;;;11.52;5.43;;;;;;;;;;5088508;28;20028;-69
2021/05/30 07:56:55;;;;;;;13.20;5.57;;;;;;;;;;5091946;28;20017;-69
2021/05/30 07:59:21;;;;;;;12.65;5.10;;;;;;;;;;5087799;28;20089;-69
2021/05/30 08:01:48;;;;;;;9.18;5.28;;;;;;;;;;5090265;28;20035;-69
2021/05/30 08:04:13;;;;;;;14.35;5.50;;;;;;;;;;5089604;28;20138;-69
2021/05/30 08:06:38;;;;;;;9.88;4.93;;;;;;;;;;5092604;28;20120;-69
2021/05/30 08:09:04;;;;;;;11.63;5.40;;;;;;;;;;5092507;28;20024;-69
2021/05/30 08:11:30;;;;;;;10.15;5.25;;;;;;;;;;5092746;28;20032;-69
2021/05/30 08:13:55;;;;;;;11.43;5.78;;;;;;;;;;5084942;28;20020;-69
2021/05/30 08:16:21;;;;;;;10.43;5.82;;;;;;;;;;5091950;28;20337;-69
2021/05/30 08:18:46;;;;;;;10.25;5.32;;;;;;;;;;5090773;28;20042;-69
2021/05/30 08:21:12;;;;;;;10.82;5.28;;;;;;;;;;5092300;28;20047;-69
2021/05/30 08:23:40;;;;;;;13.18;5.63;;;;;;;;;;5086967;28;20027;-69
2021/05/30 08:26:05;;;;;;;13.50;5.63;;;;;;;;;;5091512;28;20024;-69
2021/05/30 08:28:30;;;;;;;8.85;4.78;;;;;;;;;;5091252;28;20368;-69
2021/05/30 08:30:56;;;;;;;13.38;5.80;;;;;;;;;;5090164;28;20084;-69
2021/05/30 08:33:21;;;;;;;11.98;5.43;;;;;;;;;;5090349;28;20020;-69
2021/05/30 08:35:46;;;;;;;12.85;5.88;;;;;;;;;;5091547;28;20028;-69
2021/05/30 08:38:11;;;;;;;9.88;5.32;;;;;;;;;;5084462;28;20393;-69
2021/05/30 08:40:37;;;;;;;10.80;5.55;;;;;;;;;;5079829;28;20016;-69
2021/05/30 08:43:03;;;;;;;10.43;5.60;;;;;;;;;;5089727;28;20024;-69
2021/05/30 08:45:28;;;;;;;12.13;5.10;;;;;;;;;;5092135;28;20077;-69
2021/05/30 08:47:53;;;;;;;11.32;5.65;;;;;;;;;;5091418;28;20036;-69
2021/05/30 08:50:18;;;;;;;11.70;5.53;;;;;;;;;;5091564;28;20024;-69
2021/05/30 08:52:44;;;;;;;11.73;5.72;;;;;;;;;;5091658;28;20024;-69
2021/05/30 08:55:10;;;;;;;13.73;5.90;;;;;;;;;;5088800;28;20406;-69
2021/05/30 08:57:35;;;;;;;11.27;5.60;;;;;;;;;;5088263;28;20040;-69
2021/05/30 09:00:02;;;;;;;13.27;5.43;;;;;;;;;;5092527;28;20432;-69
2021/05/30 09:02:27;;;;;;;10.93;5.35;;;;;;;;;;5084957;28;20047;-69
2021/05/30 09:04:56;;;;;;;9.52;5.35;;;;;;;;;;5093792;28;20020;-70
2021/05/30 09:07:37;;;;;;;10.63;5.30;;;;;;;;;;5090611;28;20017;-69
2021/05/30 09:10:07;;;;;;;11.50;5.33;;;;;;;;;;5093397;28;20032;-69
2021/05/30 09:12:37;;;;;;;9.88;5.20;;;;;;;;;;5093617;28;20020;-69
2021/05/30 09:15:06;;;;;;;14.60;5.70;;;;;;;;;;5094791;28;20020;-69
2021/05/30 09:17:32;;;;;;;11.32;5.35;;;;;;;;;;5095884;28;20019;-69
2021/05/30 09:20:00;;;;;;;12.48;5.63;;;;;;;;;;5082033;28;20110;-69
2021/05/30 09:22:28;;;;;;;10.70;5.95;;;;;;;;;;5092309;28;20024;-69
2021/05/30 09:24:59;;;;;;;11.77;5.88;;;;;;;;;;5077223;28;20030;-69
2021/05/30 09:27:25;;;;;;;9.15;4.82;;;;;;;;;;5081235;28;20092;-69
2021/05/30 09:30:09;;;;;;;8.30;4.43;;;;;;;;;;5084630;28;20035;-69
2021/05/30 09:32:53;;;;;;;11.82;5.35;;;;;;;;;;5089205;28;20535;-69
2021/05/30 09:35:18;;;;;;;12.40;6.07;;;;;;;;;;5089994;28;20024;-69
2021/05/30 09:37:43;;;;;;;10.85;5.28;;;;;;;;;;5101156;28;20384;-69
2021/05/30 09:40:09;;;;;;;11.15;5.00;;;;;;;;;;5091840;28;20028;-69
2021/05/30 09:42:37;;;;;;;9.02;4.90;;;;;;;;;;5092898;28;20036;-69
2021/05/30 09:45:04;;;;;;;12.05;5.78;;;;;;;;;;5093070;28;20019;-70
2021/05/30 09:47:33;;;;;;;12.18;5.57;;;;;;;;;;5094445;28;20483;-69
2021/05/30 09:49:58;;;;;;;10.52;5.10;;;;;;;;;;5093404;28;20126;-69
2021/05/30 09:52:37;;;;;;;11.15;5.25;;;;;;;;;;5094198;28;20103;-69
2021/05/30 09:55:20;;;;;;;10.00;4.75;;;;;;;;;;5081907;28;20024;-70
2021/05/30 09:58:04;;;;;;;10.80;4.95;;;;;;;;;;5093348;28;20039;-70
2021/05/30 10:00:30;;;;;;;9.98;5.30;;;;;;;;;;5094546;28;20357;-70
2021/05/30 10:02:55;;;;;;;9.55;5.20;;;;;;;;;;5091210;28;20055;-70
2021/05/30 10:05:20;;;;;;;8.77;4.53;;;;;;;;;;5072994;28;20488;-70
2021/05/30 10:07:47;;;;;;;10.82;5.07;;;;;;;;;;5071665;28;20103;-70
2021/05/30 10:10:14;;;;;;;9.32;5.03;;;;;;;;;;5078081;28;20049;-70
2021/05/30 10:12:40;;;;;;;7.60;4.28;;;;;;;;;;5078640;28;20381;-70
2021/05/30 10:15:05;;;;;;;12.43;5.00;;;;;;;;;;5076234;28;20028;-70
2021/05/30 10:17:31;;;;;;;11.32;4.72;;;;;;;;;;5092717;28;20020;-70
2021/05/30 10:19:57;;;;;;;9.70;4.60;;;;;;;;;;5073290;28;20104;-70
2021/05/30 10:22:23;;;;;;;10.43;4.90;;;;;;;;;;5092455;28;20103;-70
2021/05/30 10:24:49;;;;;;;9.63;4.80;;;;;;;;;;5084428;28;20023;-70
2021/05/30 10:27:24;;;;;;;9.32;4.90;;;;;;;;;;5084064;28;20027;-70
2021/05/30 10:30:10;;;;;;;7.47;4.40;;;;;;;;;;5078646;28;20017;-70
2021/05/30 10:32:37;;;;;;;11.82;4.80;;;;;;;;;;5085838;28;20021;-70
2021/05/30 10:35:21;;;;;;;10.27;5.15;;;;;;;;;;5078222;28;20036;-70
2021/05/30 10:37:47;;;;;;;10.38;5.38;;;;;;;;;;5072870;28;20023;-70
2021/05/30 10:40:19;;;;;;;10.85;4.95;;;;;;;;;;5064637;28;20649;-70
2021/05/30 10:42:44;;;;;;;;;;;;;;;;;;5071384;28;20659;-71
2021/05/30 10:45:14;;;;;;;9.73;5.13;;;;;;;;;;5079798;28;19908;-70
2021/05/30 10:47:43;;;;;;;11.17;5.17;;;;;;;;;;5073404;28;20306;-71
2021/05/30 10:50:09;;;;;;;11.57;5.00;;;;;;;;;;5081158;28;20293;-70
2021/05/30 10:52:35;;;;;;;9.70;4.72;;;;;;;;;;5084598;28;20023;-70
2021/05/30 10:55:11;;;;;;;10.73;5.03;;;;;;;;;;5076342;28;20445;-70
2021/05/30 10:57:44;;;;;;;8.75;4.90;;;;;;;;;;5076132;28;20012;-71
2021/05/30 11:00:21;;;;;;;7.82;4.15;;;;;;;;;;5089161;28;20028;-71
2021/05/30 11:03:03;;;;;;;8.98;4.32;;;;;;;;;;5087750;28;20056;-71
2021/05/30 11:06:03;;;;;;;9.85;4.72;;;;;;;;;;5071599;28;20043;-70
2021/05/30 11:08:29;;;;;;;9.02;5.43;;;;;;;;;;4954605;28;20109;-71
2021/05/30 11:11:13;;;;;;;8.90;4.93;;;;;;;;;;5059780;28;20116;-71
2021/05/30 11:13:54;;;;;;;8.43;4.53;;;;;;;;;;5081803;28;20040;-71
2021/05/30 11:16:19;;;;;;;;;;;;;;;;;;5079657;28;20111;-71
2021/05/30 11:18:54;;;;;;;9.75;4.75;;;;;;;;;;5080376;28;20002;-71
2021/05/30 11:21:19;;;;;;;7.28;4.10;;;;;;;;;;5068248;28;20024;-71
2021/05/30 11:23:45;;;;;;;7.15;3.50;;;;;;;;;;5078034;28;20499;-71
2021/05/30 11:26:11;;;;;;;10.45;4.22;;;;;;;;;;5093790;28;20451;-71
2021/05/30 11:28:39;;;;;;;8.65;4.15;;;;;;;;;;5079650;28;20086;-71
2021/05/30 11:31:07;;;;;;;8.25;4.47;;;;;;;;;;5070164;28;20027;-71
2021/05/30 11:33:41;;;;;;;10.35;4.53;;;;;;;;;;5074596;28;20025;-71
2021/05/30 11:36:11;;;;;;;8.68;4.40;;;;;;;;;;5080827;28;20059;-71
2021/05/30 11:38:39;;;;;;;6.93;3.83;;;;;;;;;;5088558;28;20077;-71
2021/05/30 11:41:07;;;;;;;9.65;4.57;;;;;;;;;;5082929;28;20403;-70
2021/05/30 11:43:33;;;;;;;11.18;5.30;;;;;;;;;;5068664;28;20017;-71
2021/05/30 11:46:09;;;;;;;9.90;5.30;;;;;;;;;;5080946;28;20008;-71
2021/05/30 11:48:34;;;;;;;9.18;5.05;;;;;;;;;;5065421;28;20021;-71
2021/05/30 11:50:59;;;;;;;9.25;4.20;;;;;;;;;;5080743;28;20499;-71
2021/05/30 11:53:28;;;;;;;10.95;4.72;;;;;;;;;;5077315;28;20095;-71
2021/05/30 11:55:54;;;;;;;7.78;4.10;;;;;;;;;;5091772;28;20020;-71
2021/05/30 11:58:20;;;;;;;8.07;4.07;;;;;;;;;;5074016;28;20021;-71
2021/05/30 12:00:45;;;;;;;9.18;4.20;;;;;;;;;;5088408;28;20138;-71
2021/05/30 12:03:11;;;;;;;9.00;4.15;;;;;;;;;;5077902;28;20466;-71
2021/05/30 12:05:37;;;;;;;9.75;4.18;;;;;;;;;;5086737;28;20118;-71
2021/05/30 12:08:31;;;;;;;8.95;3.83;;;;;;;;;;5082234;28;20466;-71
2021/05/30 12:10:58;;;;;;;6.25;3.65;;;;;;;;;;5037433;28;20051;-71
2021/05/30 12:13:30;;;;;;;8.10;4.43;;;;;;;;;;5080756;28;20021;-71
2021/05/30 12:15:57;;;;;;;7.63;4.05;;;;;;;;;;5071058;28;20033;-71
2021/05/30 12:18:22;;;;;;;7.95;4.15;;;;;;;;;;5067349;28;20020;-71
2021/05/30 12:20:48;;;;;;;9.05;4.28;;;;;;;;;;5075736;28;20085;-71
2021/05/30 12:23:18;;;;;;;8.02;4.38;;;;;;;;;;5076749;28;20477;-71
2021/05/30 12:25:57;;;;;;;7.85;3.70;;;;;;;;;;5088047;28;20020;-72
2021/05/30 12:28:24;;;;;;;5.88;3.20;;;;;;;;;;5056906;28;20025;-72
2021/05/30 12:30:53;;;;;;;5.82;2.90;;;;;;;;;;5071973;28;20034;-72
2021/05/30 12:33:19;;;;;;;7.43;3.55;;;;;;;;;;5068769;28;20099;-72
2021/05/30 12:35:46;;;;;;;7.28;3.60;;;;;;;;;;5069711;28;20016;-72
2021/05/30 12:38:16;;;;;;;6.72;3.25;;;;;;;;;;5082213;28;20116;-72
2021/05/30 12:40:42;;;;;;;10.52;3.10;;;;;;;;;;5065567;28;20044;-72
2021/05/30 12:43:08;;;;;;;5.97;2.90;;;;;;;;;;5071091;28;20032;-72
2021/05/30 12:45:34;;;;;;;5.75;2.90;;;;;;;;;;5088060;28;20027;-72
2021/05/30 12:47:59;;;;;;;5.65;2.70;;;;;;;;;;5082592;28;20024;-72
2021/05/30 12:50:25;;;;;;;5.15;2.40;;;;;;;;;;5064837;28;20094;-72
2021/05/30 12:52:52;;;;;;;6.47;2.90;;;;;;;;;;5076185;28;20420;-72
2021/05/30 12:55:19;;;;;;;6.18;3.15;;;;;;;;;;5085633;28;20493;-72
2021/05/30 12:57:48;;;;;;;7.47;2.75;;;;;;;;;;5071528;28;20055;-72
2021/05/30 13:00:30;;;;;;;5.97;2.60;;;;;;;;;;5091086;28;20036;-72
2021/05/30 13:03:06;;;;;;;4.72;2.58;;;;;;;;;;5076466;28;20131;-72
2021/05/30 13:05:39;;;;;;;4.82;2.30;;;;;;;;;;5068695;28;20063;-72
2021/05/30 13:08:13;;;;;;;7.72;2.13;;;;;;;;;;5078469;28;20103;-72
2021/05/30 13:10:55;;;;;;;5.65;2.42;;;;;;;;;;5067517;28;20416;-72
2021/05/30 13:13:26;;;;;;;7.00;2.33;;;;;;;;;;5061112;28;20412;-72
2021/05/30 13:15:52;;;;;;;3.90;1.50;;;;;;;;;;5064778;28;20044;-72
2021/05/30 13:18:17;;;;;;;3.88;1.88;;;;;;;;;;5069826;28;20016;-72
2021/05/30 13:20:45;;;;;;;3.70;1.98;;;;;;;;;;5071670;28;20020;-72
2021/05/30 13:23:21;;;;;;;3.90;2.00;;;;;;;;;;5072136;28;20430;-72
2021/05/30 13:25:50;;;;;;;4.82;2.15;;;;;;;;;;5073268;28;20030;-72
2021/05/30 13:28:29;;;;;;;6.00;2.10;;;;;;;;;;5069589;28;20023;-72
2021/05/30 13:30:59;;;;;;;6.20;2.30;;;;;;;;;;5069940;28;20477;-72
2021/05/30 13:33:24;;;;;;;5.00;2.35;;;;;;;;;;5065304;28;20436;-72
2021/05/30 13:35:51;;;;;;;4.32;1.70;;;;;;;;;;5061603;28;20092;-72
2021/05/30 13:38:16;;;;;;;7.93;1.50;;;;;;;;;;5066850;28;20017;-72
2021/05/30 13:40:43;;;;;;;3.35;1.45;;;;;;;;;;5070121;28;20058;-72
2021/05/30 13:43:08;;;;;;;3.88;1.50;;;;;;;;;;5072961;28;20025;-72
2021/05/30 13:45:34;;;;;;;12.27;2.17;;;;;;;;;;5086902;28;20035;-72
2021/05/30 13:48:00;;;;;;;3.22;1.33;;;;;;;;;;5080334;28;20039;-72
2021/05/30 13:50:25;;;;;;;2.83;1.30;;;;;;;;;;5085254;28;20016;-72
2021/05/30 13:52:50;;;;;;;2.67;1.30;;;;;;;;;;5076615;28;20096;-72
2021/05/30 13:55:15;;;;;;;3.80;1.40;;;;;;;;;;5086344;28;20376;-72
2021/05/30 13:57:41;;;;;;;4.05;1.30;;;;;;;;;;5074128;28;20024;-72
2021/05/30 14:00:06;;;;;;;2.97;1.10;;;;;;;;;;5074698;28;20029;-72
2021/05/30 14:02:31;;;;;;;2.67;1.17;;;;;;;;;;5074273;28;20516;-72
2021/05/30 14:04:57;;;;;;;2.58;1.10;;;;;;;;;;5074418;28;20361;-72
2021/05/30 14:07:22;;;;;;;2.72;1.27;;;;;;;;;;5074801;28;20017;-72
2021/05/30 14:09:47;;;;;;;5.25;1.35;;;;;;;;;;5076614;28;20052;-72
2021/05/30 14:12:13;;;;;;;2.90;1.13;;;;;;;;;;5082678;28;20020;-72
2021/05/30 14:14:41;;;;;;;3.67;1.40;;;;;;;;;;5086564;28;20048;-72
2021/05/30 14:17:06;;;;;;;3.72;1.45;;;;;;;;;;5080370;28;20042;-72
2021/05/30 14:19:31;;;;;;;4.15;1.45;;;;;;;;;;5076947;28;20024;-72
2021/05/30 14:21:56;;;;;;;5.78;1.80;;;;;;;;;;5074406;28;20530;-72
2021/05/30 14:24:22;;;;;;;5.05;2.15;;;;;;;;;;5083805;28;20021;-72
2021/05/30 14:26:47;;;;;;;3.67;1.45;;;;;;;;;;5074287;28;20028;-72
2021/05/30 14:29:12;;;;;;;3.35;1.77;;;;;;;;;;5086527;28;20090;-72
2021/05/30 14:31:37;;;;;;;4.05;1.70;;;;;;;;;;5083525;28;20095;-72